sensor_id;sensor_type;location;lat;lon;timestamp;temperature;humidity
14884;DHT22;7534;50.762;7.000;2023-03-01T00:01:17;-1.90;99.90
14884;DHT22;7534;50.762;7.000;2023-03-01T00:03:45;-1.80;99.90
14884;DHT22;7534;50.762;7.000;2023-03-01T00:06:11;-1.90;99.90
14884;DHT22;7534;50.762;7.000;2023-03-01T00:08:37;-1.90;99.90
14884;DHT22;7534;50.762;7.000;2023-03-01T00:11:15;-1.90;99.90
14884;DHT22;7534;50.762;7.000;2023-03-01T00:13:44;-2.00;99.90
14884;DHT22;7534;50.762;7.000;2023-03-01T00:16:23;-2.10;99.90
14884;DHT22;7534;50.762;7.000;2023-03-01T00:18:54;-2.20;99.90
14884;DHT22;7534;50.762;7.000;2023-03-01T00:21:21;-2.20;99.90
14884;DHT22;7534;50.762;7.000;2023-03-01T00:23:48;-2.20;99.90
14884;DHT22;7534;50.762;7.000;2023-03-01T00:26:16;-2.20;99.90
14884;DHT22;7534;50.762;7.000;2023-03-01T00:28:43;-2.20;99.90
14884;DHT22;7534;50.762;7.000;2023-03-01T00:31:18;-2.20;99.90
14884;DHT22;7534;50.762;7.000;2023-03-01T00:33:47;-2.20;99.90
14884;DHT22;7534;50.762;7.000;2023-03-01T00:36:14;-2.20;99.90
14884;DHT22;7534;50.762;7.000;2023-03-01T00:38:42;-2.20;99.90
14884;DHT22;7534;50.762;7.000;2023-03-01T00:41:16;-2.20;99.90
14884;DHT22;7534;50.762;7.000;2023-03-01T00:43:43;-2.30;99.90
14884;DHT22;7534;50.762;7.000;2023-03-01T00:46:17;-2.30;99.90
14884;DHT22;7534;50.762;7.000;2023-03-01T00:48:47;-2.40;99.90
14884;DHT22;7534;50.762;7.000;2023-03-01T00:51:18;-2.40;99.90
14884;DHT22;7534;50.762;7.000;2023-03-01T00:53:46;-2.40;99.90
14884;DHT22;7534;50.762;7.000;2023-03-01T00:56:14;-2.40;99.90
14884;DHT22;7534;50.762;7.000;2023-03-01T00:58:40;-2.40;99.90
14884;DHT22;7534;50.762;7.000;2023-03-01T01:01:15;-2.40;99.90
14884;DHT22;7534;50.762;7.000;2023-03-01T01:03:56;-2.40;99.90
14884;DHT22;7534;50.762;7.000;2023-03-01T01:06:33;-2.40;99.90
14884;DHT22;7534;50.762;7.000;2023-03-01T01:09:05;-2.50;99.90
14884;DHT22;7534;50.762;7.000;2023-03-01T01:11:32;-2.50;99.90
14884;DHT22;7534;50.762;7.000;2023-03-01T01:14:00;-2.50;99.90
14884;DHT22;7534;50.762;7.000;2023-03-01T01:16:27;-2.60;99.90
14884;DHT22;7534;50.762;7.000;2023-03-01T01:18:55;-2.60;99.90
14884;DHT22;7534;50.762;7.000;2023-03-01T01:21:23;-2.60;99.90
14884;DHT22;7534;50.762;7.000;2023-03-01T01:23:49;-2.60;99.90
14884;DHT22;7534;50.762;7.000;2023-03-01T01:26:21;-2.70;99.90
14884;DHT22;7534;50.762;7.000;2023-03-01T01:28:49;-2.70;99.90
14884;DHT22;7534;50.762;7.000;2023-03-01T01:31:15;-2.70;99.90
14884;DHT22;7534;50.762;7.000;2023-03-01T01:33:41;-2.70;99.90
14884;DHT22;7534;50.762;7.000;2023-03-01T01:36:08;-2.70;99.90
14884;DHT22;7534;50.762;7.000;2023-03-01T01:38:35;-2.80;99.90
14884;DHT22;7534;50.762;7.000;2023-03-01T01:41:03;-2.80;99.90
14884;DHT22;7534;50.762;7.000;2023-03-01T01:43:33;-2.80;99.90
14884;DHT22;7534;50.762;7.000;2023-03-01T01:46:06;-2.90;99.90
14884;DHT22;7534;50.762;7.000;2023-03-01T01:48:47;-2.90;99.90
14884;DHT22;7534;50.762;7.000;2023-03-01T01:51:25;-2.80;99.90
14884;DHT22;7534;50.762;7.000;2023-03-01T01:54:08;-2.80;99.90
14884;DHT22;7534;50.762;7.000;2023-03-01T01:56:38;-2.80;99.90
14884;DHT22;7534;50.762;7.000;2023-03-01T01:59:09;-2.90;99.90
14884;DHT22;7534;50.762;7.000;2023-03-01T02:01:38;-2.90;99.90
14884;DHT22;7534;50.762;7.000;2023-03-01T02:04:04;-2.90;99.90
14884;DHT22;7534;50.762;7.000;2023-03-01T02:06:36;-2.90;99.90
14884;DHT22;7534;50.762;7.000;2023-03-01T02:09:08;-2.90;99.90
14884;DHT22;7534;50.762;7.000;2023-03-01T02:11:39;-2.90;99.90
14884;DHT22;7534;50.762;7.000;2023-03-01T02:14:05;-2.90;99.90
14884;DHT22;7534;50.762;7.000;2023-03-01T02:16:31;-2.90;99.90
14884;DHT22;7534;50.762;7.000;2023-03-01T02:18:58;-2.90;99.90
14884;DHT22;7534;50.762;7.000;2023-03-01T02:27:12;-3.00;99.90
14884;DHT22;7534;50.762;7.000;2023-03-01T02:29:38;-3.20;99.90
14884;DHT22;7534;50.762;7.000;2023-03-01T02:32:05;-3.20;99.90
14884;DHT22;7534;50.762;7.000;2023-03-01T02:34:31;-3.30;99.90
14884;DHT22;7534;50.762;7.000;2023-03-01T02:37:06;-3.20;99.90
14884;DHT22;7534;50.762;7.000;2023-03-01T02:39:44;-3.20;99.90
14884;DHT22;7534;50.762;7.000;2023-03-01T02:42:17;-3.20;99.90
14884;DHT22;7534;50.762;7.000;2023-03-01T02:44:49;-3.10;99.90
14884;DHT22;7534;50.762;7.000;2023-03-01T02:47:15;-3.10;99.90
14884;DHT22;7534;50.762;7.000;2023-03-01T02:49:40;-3.10;99.90
14884;DHT22;7534;50.762;7.000;2023-03-01T02:55:14;-3.00;99.90
14884;DHT22;7534;50.762;7.000;2023-03-01T02:57:44;-3.00;99.90
14884;DHT22;7534;50.762;7.000;2023-03-01T03:00:13;-3.00;99.90
14884;DHT22;7534;50.762;7.000;2023-03-01T03:02:45;-3.00;99.90
14884;DHT22;7534;50.762;7.000;2023-03-01T03:05:16;-3.10;99.90
14884;DHT22;7534;50.762;7.000;2023-03-01T03:07:45;-3.10;99.90
14884;DHT22;7534;50.762;7.000;2023-03-01T03:10:22;-3.10;99.90
14884;DHT22;7534;50.762;7.000;2023-03-01T03:12:52;-3.10;99.90
14884;DHT22;7534;50.762;7.000;2023-03-01T03:15:23;-3.20;99.90
14884;DHT22;7534;50.762;7.000;2023-03-01T03:17:50;-3.20;99.90
14884;DHT22;7534;50.762;7.000;2023-03-01T03:20:21;-3.20;99.90
14884;DHT22;7534;50.762;7.000;2023-03-01T03:22:53;-3.10;99.90
14884;DHT22;7534;50.762;7.000;2023-03-01T03:25:21;-3.10;99.90
14884;DHT22;7534;50.762;7.000;2023-03-01T03:27:49;-3.10;99.90
14884;DHT22;7534;50.762;7.000;2023-03-01T03:30:24;-3.20;99.90
14884;DHT22;7534;50.762;7.000;2023-03-01T03:32:55;-3.20;99.90
14884;DHT22;7534;50.762;7.000;2023-03-01T03:35:40;-3.20;99.90
14884;DHT22;7534;50.762;7.000;2023-03-01T03:38:12;-3.20;99.90
14884;DHT22;7534;50.762;7.000;2023-03-01T03:40:47;-3.30;99.90
14884;DHT22;7534;50.762;7.000;2023-03-01T03:43:22;-3.30;99.90
14884;DHT22;7534;50.762;7.000;2023-03-01T03:45:50;-3.40;99.90
14884;DHT22;7534;50.762;7.000;2023-03-01T03:48:16;-3.50;99.90
14884;DHT22;7534;50.762;7.000;2023-03-01T03:50:48;-3.50;99.90
14884;DHT22;7534;50.762;7.000;2023-03-01T03:53:22;-3.50;99.90
14884;DHT22;7534;50.762;7.000;2023-03-01T03:55:49;-3.50;99.90
14884;DHT22;7534;50.762;7.000;2023-03-01T03:58:17;-3.60;99.90
14884;DHT22;7534;50.762;7.000;2023-03-01T04:00:45;-3.60;99.90
14884;DHT22;7534;50.762;7.000;2023-03-01T04:03:13;-3.60;99.90
14884;DHT22;7534;50.762;7.000;2023-03-01T04:05:41;-3.60;99.90
14884;DHT22;7534;50.762;7.000;2023-03-01T04:08:08;-3.60;99.90
14884;DHT22;7534;50.762;7.000;2023-03-01T04:10:40;-3.60;99.90
14884;DHT22;7534;50.762;7.000;2023-03-01T04:13:15;-3.60;99.90
14884;DHT22;7534;50.762;7.000;2023-03-01T04:15:48;-3.60;99.90
14884;DHT22;7534;50.762;7.000;2023-03-01T04:18:17;-3.70;99.90
14884;DHT22;7534;50.762;7.000;2023-03-01T04:20:44;-3.80;99.90
14884;DHT22;7534;50.762;7.000;2023-03-01T04:23:13;-3.80;99.90
14884;DHT22;7534;50.762;7.000;2023-03-01T04:25:54;-3.80;99.90
14884;DHT22;7534;50.762;7.000;2023-03-01T04:28:24;-3.80;99.90
14884;DHT22;7534;50.762;7.000;2023-03-01T04:30:53;-3.80;99.90
14884;DHT22;7534;50.762;7.000;2023-03-01T04:33:21;-3.80;99.90
14884;DHT22;7534;50.762;7.000;2023-03-01T04:35:48;-3.70;99.90
14884;DHT22;7534;50.762;7.000;2023-03-01T04:38:19;-3.80;99.90
14884;DHT22;7534;50.762;7.000;2023-03-01T04:40:45;-3.80;99.90
14884;DHT22;7534;50.762;7.000;2023-03-01T04:43:11;-3.80;99.90
14884;DHT22;7534;50.762;7.000;2023-03-01T04:45:41;-3.80;99.90
14884;DHT22;7534;50.762;7.000;2023-03-01T04:48:07;-3.90;99.90
14884;DHT22;7534;50.762;7.000;2023-03-01T04:50:33;-4.00;99.90
14884;DHT22;7534;50.762;7.000;2023-03-01T04:52:58;-4.00;99.90
14884;DHT22;7534;50.762;7.000;2023-03-01T04:55:26;-4.00;99.90
14884;DHT22;7534;50.762;7.000;2023-03-01T04:57:52;-4.00;99.90
14884;DHT22;7534;50.762;7.000;2023-03-01T05:00:19;-4.00;99.90
14884;DHT22;7534;50.762;7.000;2023-03-01T05:02:52;-4.10;99.90
14884;DHT22;7534;50.762;7.000;2023-03-01T05:05:30;-4.10;99.90
14884;DHT22;7534;50.762;7.000;2023-03-01T05:08:05;-4.20;99.90
14884;DHT22;7534;50.762;7.000;2023-03-01T05:10:34;-4.20;99.90
14884;DHT22;7534;50.762;7.000;2023-03-01T05:13:03;-4.10;99.90
14884;DHT22;7534;50.762;7.000;2023-03-01T05:15:30;-4.10;99.90
14884;DHT22;7534;50.762;7.000;2023-03-01T05:17:58;-4.00;99.90
14884;DHT22;7534;50.762;7.000;2023-03-01T05:20:29;-4.00;99.90
14884;DHT22;7534;50.762;7.000;2023-03-01T05:22:57;-4.00;99.90
14884;DHT22;7534;50.762;7.000;2023-03-01T05:25:24;-4.00;99.90
14884;DHT22;7534;50.762;7.000;2023-03-01T05:27:50;-4.00;99.90
14884;DHT22;7534;50.762;7.000;2023-03-01T05:30:17;-4.00;99.90
14884;DHT22;7534;50.762;7.000;2023-03-01T05:32:48;-4.10;99.90
14884;DHT22;7534;50.762;7.000;2023-03-01T05:35:20;-4.10;99.90
14884;DHT22;7534;50.762;7.000;2023-03-01T05:37:48;-4.10;99.90
14884;DHT22;7534;50.762;7.000;2023-03-01T05:40:20;-4.00;99.90
14884;DHT22;7534;50.762;7.000;2023-03-01T05:42:49;-4.10;99.90
14884;DHT22;7534;50.762;7.000;2023-03-01T05:45:19;-4.10;99.90
14884;DHT22;7534;50.762;7.000;2023-03-01T05:47:47;-4.00;99.90
14884;DHT22;7534;50.762;7.000;2023-03-01T05:50:17;-4.10;99.90
14884;DHT22;7534;50.762;7.000;2023-03-01T05:52:51;-4.10;99.90
14884;DHT22;7534;50.762;7.000;2023-03-01T05:55:28;-4.10;99.90
14884;DHT22;7534;50.762;7.000;2023-03-01T05:57:57;-4.10;99.90
14884;DHT22;7534;50.762;7.000;2023-03-01T06:00:24;-4.10;99.90
14884;DHT22;7534;50.762;7.000;2023-03-01T06:02:50;-4.20;99.90
14884;DHT22;7534;50.762;7.000;2023-03-01T06:05:17;-4.20;99.90
14884;DHT22;7534;50.762;7.000;2023-03-01T06:07:43;-4.20;99.90
14884;DHT22;7534;50.762;7.000;2023-03-01T06:10:10;-4.20;99.90
14884;DHT22;7534;50.762;7.000;2023-03-01T06:12:38;-4.20;99.90
14884;DHT22;7534;50.762;7.000;2023-03-01T06:15:06;-4.20;99.90
14884;DHT22;7534;50.762;7.000;2023-03-01T06:17:33;-4.20;99.90
14884;DHT22;7534;50.762;7.000;2023-03-01T06:20:07;-4.20;99.90
14884;DHT22;7534;50.762;7.000;2023-03-01T06:22:33;-4.20;99.90
14884;DHT22;7534;50.762;7.000;2023-03-01T06:24:59;-4.10;99.90
14884;DHT22;7534;50.762;7.000;2023-03-01T06:27:25;-4.00;99.90
14884;DHT22;7534;50.762;7.000;2023-03-01T06:29:50;-4.10;99.90
14884;DHT22;7534;50.762;7.000;2023-03-01T06:32:16;-4.00;99.90
14884;DHT22;7534;50.762;7.000;2023-03-01T06:34:42;-4.10;99.90
14884;DHT22;7534;50.762;7.000;2023-03-01T06:37:08;-4.00;99.90
14884;DHT22;7534;50.762;7.000;2023-03-01T06:39:34;-3.90;99.90
14884;DHT22;7534;50.762;7.000;2023-03-01T06:41:59;-3.80;99.90
14884;DHT22;7534;50.762;7.000;2023-03-01T06:44:26;-3.80;99.90
14884;DHT22;7534;50.762;7.000;2023-03-01T06:46:52;-3.80;99.90
14884;DHT22;7534;50.762;7.000;2023-03-01T06:49:18;-3.70;99.90
14884;DHT22;7534;50.762;7.000;2023-03-01T06:51:45;-3.70;99.90
14884;DHT22;7534;50.762;7.000;2023-03-01T06:54:12;-3.60;99.90
14884;DHT22;7534;50.762;7.000;2023-03-01T06:56:38;-3.40;99.90
14884;DHT22;7534;50.762;7.000;2023-03-01T06:59:04;-3.10;99.90
14884;DHT22;7534;50.762;7.000;2023-03-01T07:01:30;-2.90;99.90
14884;DHT22;7534;50.762;7.000;2023-03-01T07:03:57;-2.70;99.90
14884;DHT22;7534;50.762;7.000;2023-03-01T07:06:23;-2.50;99.90
14884;DHT22;7534;50.762;7.000;2023-03-01T07:08:49;-2.30;99.90
14884;DHT22;7534;50.762;7.000;2023-03-01T07:11:15;-2.10;99.90
14884;DHT22;7534;50.762;7.000;2023-03-01T07:13:41;-1.90;99.90
14884;DHT22;7534;50.762;7.000;2023-03-01T07:16:07;-1.40;99.90
14884;DHT22;7534;50.762;7.000;2023-03-01T07:18:33;-1.10;99.90
14884;DHT22;7534;50.762;7.000;2023-03-01T07:21:04;-0.70;99.90
14884;DHT22;7534;50.762;7.000;2023-03-01T07:23:31;-0.20;99.90
14884;DHT22;7534;50.762;7.000;2023-03-01T07:25:57;0.10;99.90
14884;DHT22;7534;50.762;7.000;2023-03-01T07:28:23;0.70;99.90
14884;DHT22;7534;50.762;7.000;2023-03-01T07:30:49;1.80;99.90
14884;DHT22;7534;50.762;7.000;2023-03-01T07:33:16;3.20;99.90
14884;DHT22;7534;50.762;7.000;2023-03-01T07:35:42;4.70;99.90
14884;DHT22;7534;50.762;7.000;2023-03-01T07:38:07;6.10;99.90
14884;DHT22;7534;50.762;7.000;2023-03-01T07:40:33;7.70;99.90
14884;DHT22;7534;50.762;7.000;2023-03-01T07:42:59;9.20;96.70
14884;DHT22;7534;50.762;7.000;2023-03-01T07:47:53;12.20;83.20
14884;DHT22;7534;50.762;7.000;2023-03-01T07:50:19;13.70;73.10
14884;DHT22;7534;50.762;7.000;2023-03-01T07:52:49;15.00;61.60
14884;DHT22;7534;50.762;7.000;2023-03-01T07:55:15;16.00;55.70
14884;DHT22;7534;50.762;7.000;2023-03-01T07:57:41;16.90;48.40
14884;DHT22;7534;50.762;7.000;2023-03-01T08:00:10;17.10;44.50
14884;DHT22;7534;50.762;7.000;2023-03-01T08:02:37;17.00;42.60
14884;DHT22;7534;50.762;7.000;2023-03-01T08:05:03;16.50;41.70
14884;DHT22;7534;50.762;7.000;2023-03-01T08:07:30;15.60;42.40
14884;DHT22;7534;50.762;7.000;2023-03-01T08:09:56;14.90;42.90
14884;DHT22;7534;50.762;7.000;2023-03-01T08:12:22;14.50;44.20
14884;DHT22;7534;50.762;7.000;2023-03-01T08:14:47;14.70;44.60
14884;DHT22;7534;50.762;7.000;2023-03-01T08:17:14;14.70;42.70
14884;DHT22;7534;50.762;7.000;2023-03-01T08:19:40;13.90;44.00
14884;DHT22;7534;50.762;7.000;2023-03-01T08:22:05;13.40;45.00
14884;DHT22;7534;50.762;7.000;2023-03-01T08:24:31;12.70;48.20
14884;DHT22;7534;50.762;7.000;2023-03-01T08:26:56;12.00;49.80
14884;DHT22;7534;50.762;7.000;2023-03-01T08:29:23;11.90;50.00
14884;DHT22;7534;50.762;7.000;2023-03-01T08:31:50;12.10;50.10
14884;DHT22;7534;50.762;7.000;2023-03-01T08:34:17;12.80;49.00
14884;DHT22;7534;50.762;7.000;2023-03-01T08:36:45;13.30;46.90
14884;DHT22;7534;50.762;7.000;2023-03-01T08:39:14;13.50;46.00
14884;DHT22;7534;50.762;7.000;2023-03-01T08:41:42;13.60;45.00
14884;DHT22;7534;50.762;7.000;2023-03-01T08:44:08;13.00;43.60
14884;DHT22;7534;50.762;7.000;2023-03-01T08:46:37;12.30;45.60
14884;DHT22;7534;50.762;7.000;2023-03-01T08:49:13;11.20;47.80
14884;DHT22;7534;50.762;7.000;2023-03-01T08:51:41;10.50;53.00
14884;DHT22;7534;50.762;7.000;2023-03-01T08:54:14;10.60;53.50
14884;DHT22;7534;50.762;7.000;2023-03-01T08:56:42;9.90;58.30
14884;DHT22;7534;50.762;7.000;2023-03-01T08:59:09;9.50;59.30
14884;DHT22;7534;50.762;7.000;2023-03-01T09:01:36;10.40;55.20
14884;DHT22;7534;50.762;7.000;2023-03-01T09:04:06;10.10;53.90
14884;DHT22;7534;50.762;7.000;2023-03-01T09:06:35;9.70;55.50
14884;DHT22;7534;50.762;7.000;2023-03-01T09:09:04;9.30;57.60
14884;DHT22;7534;50.762;7.000;2023-03-01T09:11:33;9.90;59.10
14884;DHT22;7534;50.762;7.000;2023-03-01T09:13:59;11.20;57.50
14884;DHT22;7534;50.762;7.000;2023-03-01T09:16:25;12.50;52.00
14884;DHT22;7534;50.762;7.000;2023-03-01T09:18:54;13.60;47.10
14884;DHT22;7534;50.762;7.000;2023-03-01T10:13:19;13.50;37.70
14884;DHT22;7534;50.762;7.000;2023-03-01T10:15:54;11.70;44.60
14884;DHT22;7534;50.762;7.000;2023-03-01T10:18:26;10.10;49.00
14884;DHT22;7534;50.762;7.000;2023-03-01T10:21:22;9.50;53.50
14884;DHT22;7534;50.762;7.000;2023-03-01T10:23:51;8.70;56.40
14884;DHT22;7534;50.762;7.000;2023-03-01T10:26:32;8.10;58.80
14884;DHT22;7534;50.762;7.000;2023-03-01T10:29:10;7.80;61.30
14884;DHT22;7534;50.762;7.000;2023-03-01T10:31:44;7.50;61.60
14884;DHT22;7534;50.762;7.000;2023-03-01T10:43:27;6.40;68.70
14884;DHT22;7534;50.762;7.000;2023-03-01T12:05:20;7.00;65.40
14884;DHT22;7534;50.762;7.000;2023-03-01T12:08:20;7.60;63.70
14884;DHT22;7534;50.762;7.000;2023-03-01T12:11:26;7.90;63.20
14884;DHT22;7534;50.762;7.000;2023-03-01T12:14:17;8.20;61.80
14884;DHT22;7534;50.762;7.000;2023-03-01T12:19:40;8.00;63.10
14884;DHT22;7534;50.762;7.000;2023-03-01T12:22:59;7.70;63.60
14884;DHT22;7534;50.762;7.000;2023-03-01T12:25:48;8.00;63.10
14884;DHT22;7534;50.762;7.000;2023-03-01T12:31:59;8.60;61.10
14884;DHT22;7534;50.762;7.000;2023-03-01T12:38:23;8.40;60.90
14884;DHT22;7534;50.762;7.000;2023-03-01T12:49:37;8.60;59.90
14884;DHT22;7534;50.762;7.000;2023-03-01T12:52:22;8.50;59.70
14884;DHT22;7534;50.762;7.000;2023-03-01T12:55:08;8.80;59.70
14884;DHT22;7534;50.762;7.000;2023-03-01T13:20:21;8.90;56.50
14884;DHT22;7534;50.762;7.000;2023-03-01T13:23:02;9.20;57.40
14884;DHT22;7534;50.762;7.000;2023-03-01T13:25:32;9.50;55.60
14884;DHT22;7534;50.762;7.000;2023-03-01T13:31:10;9.40;54.80
14884;DHT22;7534;50.762;7.000;2023-03-01T13:33:59;8.90;53.50
14884;DHT22;7534;50.762;7.000;2023-03-01T13:38:55;9.00;53.90
14884;DHT22;7534;50.762;7.000;2023-03-01T13:46:59;9.30;54.60
14884;DHT22;7534;50.762;7.000;2023-03-01T13:49:53;9.50;54.50
14884;DHT22;7534;50.762;7.000;2023-03-01T13:52:43;9.60;53.50
14884;DHT22;7534;50.762;7.000;2023-03-01T13:58:33;9.90;52.20
14884;DHT22;7534;50.762;7.000;2023-03-01T14:01:42;9.80;50.80
14884;DHT22;7534;50.762;7.000;2023-03-01T14:04:31;9.90;51.50
14884;DHT22;7534;50.762;7.000;2023-03-01T14:07:21;9.70;50.40
14884;DHT22;7534;50.762;7.000;2023-03-01T14:10:02;9.60;51.50
14884;DHT22;7534;50.762;7.000;2023-03-01T14:12:52;9.90;51.90
14884;DHT22;7534;50.762;7.000;2023-03-01T14:15:33;10.10;52.10
14884;DHT22;7534;50.762;7.000;2023-03-01T14:18:24;10.10;50.60
14884;DHT22;7534;50.762;7.000;2023-03-01T14:20:55;10.40;50.00
14884;DHT22;7534;50.762;7.000;2023-03-01T14:23:23;10.30;47.20
14884;DHT22;7534;50.762;7.000;2023-03-01T14:25:51;10.30;47.20
14884;DHT22;7534;50.762;7.000;2023-03-01T14:28:30;10.20;47.30
14884;DHT22;7534;50.762;7.000;2023-03-01T14:31:03;10.10;46.10
14884;DHT22;7534;50.762;7.000;2023-03-01T14:33:31;10.10;46.70
14884;DHT22;7534;50.762;7.000;2023-03-01T14:36:04;10.10;46.40
14884;DHT22;7534;50.762;7.000;2023-03-01T14:38:46;10.20;45.20
14884;DHT22;7534;50.762;7.000;2023-03-01T14:41:15;10.20;44.50
14884;DHT22;7534;50.762;7.000;2023-03-01T14:43:46;10.20;46.00
14884;DHT22;7534;50.762;7.000;2023-03-01T14:46:43;10.10;45.50
14884;DHT22;7534;50.762;7.000;2023-03-01T14:49:15;10.60;47.80
14884;DHT22;7534;50.762;7.000;2023-03-01T14:52:02;10.60;45.90
14884;DHT22;7534;50.762;7.000;2023-03-01T14:54:46;10.70;46.70
14884;DHT22;7534;50.762;7.000;2023-03-01T14:57:17;10.30;48.00
14884;DHT22;7534;50.762;7.000;2023-03-01T14:59:47;10.20;48.10
14884;DHT22;7534;50.762;7.000;2023-03-01T15:02:18;10.50;48.90
14884;DHT22;7534;50.762;7.000;2023-03-01T15:04:55;10.30;48.30
14884;DHT22;7534;50.762;7.000;2023-03-01T15:07:23;10.30;47.90
14884;DHT22;7534;50.762;7.000;2023-03-01T15:09:53;10.20;48.10
14884;DHT22;7534;50.762;7.000;2023-03-01T15:12:45;10.20;49.80
14884;DHT22;7534;50.762;7.000;2023-03-01T15:15:43;10.10;49.00
14884;DHT22;7534;50.762;7.000;2023-03-01T15:20:41;10.30;50.90
14884;DHT22;7534;50.762;7.000;2023-03-01T15:23:18;10.20;51.10
14884;DHT22;7534;50.762;7.000;2023-03-01T15:25:48;10.30;50.60
14884;DHT22;7534;50.762;7.000;2023-03-01T15:28:25;10.30;50.00
14884;DHT22;7534;50.762;7.000;2023-03-01T15:31:04;10.40;50.10
14884;DHT22;7534;50.762;7.000;2023-03-01T15:33:43;10.60;50.20
14884;DHT22;7534;50.762;7.000;2023-03-01T15:42:03;10.50;49.40
14884;DHT22;7534;50.762;7.000;2023-03-01T15:44:36;10.40;49.20
14884;DHT22;7534;50.762;7.000;2023-03-01T15:47:27;10.30;48.40
14884;DHT22;7534;50.762;7.000;2023-03-01T15:49:55;10.30;48.70
14884;DHT22;7534;50.762;7.000;2023-03-01T15:52:26;10.30;52.30
14884;DHT22;7534;50.762;7.000;2023-03-01T15:54:59;10.30;55.30
14884;DHT22;7534;50.762;7.000;2023-03-01T15:57:27;10.10;55.70
14884;DHT22;7534;50.762;7.000;2023-03-01T15:59:54;10.00;56.20
14884;DHT22;7534;50.762;7.000;2023-03-01T16:02:20;9.90;58.40
14884;DHT22;7534;50.762;7.000;2023-03-01T16:04:48;9.90;58.90
14884;DHT22;7534;50.762;7.000;2023-03-01T16:07:14;10.00;58.20
14884;DHT22;7534;50.762;7.000;2023-03-01T16:09:39;9.90;59.60
14884;DHT22;7534;50.762;7.000;2023-03-01T16:12:08;9.90;60.20
14884;DHT22;7534;50.762;7.000;2023-03-01T16:14:39;9.80;61.20
14884;DHT22;7534;50.762;7.000;2023-03-01T16:17:04;9.50;63.10
14884;DHT22;7534;50.762;7.000;2023-03-01T16:19:30;9.40;63.80
14884;DHT22;7534;50.762;7.000;2023-03-01T16:21:56;9.40;64.80
14884;DHT22;7534;50.762;7.000;2023-03-01T16:24:22;9.30;65.20
14884;DHT22;7534;50.762;7.000;2023-03-01T16:26:47;9.20;65.20
14884;DHT22;7534;50.762;7.000;2023-03-01T16:29:13;9.20;66.00
14884;DHT22;7534;50.762;7.000;2023-03-01T16:31:40;9.10;66.10
14884;DHT22;7534;50.762;7.000;2023-03-01T16:34:05;9.10;65.80
14884;DHT22;7534;50.762;7.000;2023-03-01T16:36:31;8.90;66.40
14884;DHT22;7534;50.762;7.000;2023-03-01T16:38:59;8.70;66.50
14884;DHT22;7534;50.762;7.000;2023-03-01T16:41:29;8.50;66.70
14884;DHT22;7534;50.762;7.000;2023-03-01T16:43:54;8.40;66.80
14884;DHT22;7534;50.762;7.000;2023-03-01T16:46:23;8.30;67.40
14884;DHT22;7534;50.762;7.000;2023-03-01T16:48:54;8.10;67.20
14884;DHT22;7534;50.762;7.000;2023-03-01T16:51:24;8.10;67.80
14884;DHT22;7534;50.762;7.000;2023-03-01T16:53:50;8.00;68.30
14884;DHT22;7534;50.762;7.000;2023-03-01T16:56:17;7.70;68.70
14884;DHT22;7534;50.762;7.000;2023-03-01T16:58:44;7.50;69.70
14884;DHT22;7534;50.762;7.000;2023-03-01T17:01:18;7.50;70.20
14884;DHT22;7534;50.762;7.000;2023-03-01T17:03:46;7.30;70.40
14884;DHT22;7534;50.762;7.000;2023-03-01T17:06:16;7.20;70.90
14884;DHT22;7534;50.762;7.000;2023-03-01T17:08:45;7.10;71.30
14884;DHT22;7534;50.762;7.000;2023-03-01T17:11:14;6.90;72.30
14884;DHT22;7534;50.762;7.000;2023-03-01T17:13:42;7.00;72.70
14884;DHT22;7534;50.762;7.000;2023-03-01T17:16:12;6.80;73.00
14884;DHT22;7534;50.762;7.000;2023-03-01T17:18:40;6.70;73.80
14884;DHT22;7534;50.762;7.000;2023-03-01T17:21:07;6.40;73.90
14884;DHT22;7534;50.762;7.000;2023-03-01T17:23:34;6.40;73.50
14884;DHT22;7534;50.762;7.000;2023-03-01T17:26:01;6.50;73.40
14884;DHT22;7534;50.762;7.000;2023-03-01T17:28:29;6.10;72.80
14884;DHT22;7534;50.762;7.000;2023-03-01T17:30:58;6.00;73.60
14884;DHT22;7534;50.762;7.000;2023-03-01T17:33:32;6.10;73.70
14884;DHT22;7534;50.762;7.000;2023-03-01T17:35:59;6.00;73.90
14884;DHT22;7534;50.762;7.000;2023-03-01T17:38:26;6.00;73.40
14884;DHT22;7534;50.762;7.000;2023-03-01T17:40:52;5.90;73.60
14884;DHT22;7534;50.762;7.000;2023-03-01T17:43:18;5.90;73.80
14884;DHT22;7534;50.762;7.000;2023-03-01T17:45:45;5.90;73.70
14884;DHT22;7534;50.762;7.000;2023-03-01T17:48:16;5.80;74.20
14884;DHT22;7534;50.762;7.000;2023-03-01T17:50:41;5.70;74.70
14884;DHT22;7534;50.762;7.000;2023-03-01T17:53:08;5.60;75.70
14884;DHT22;7534;50.762;7.000;2023-03-01T17:55:39;5.60;75.70
14884;DHT22;7534;50.762;7.000;2023-03-01T17:58:06;5.60;76.00
14884;DHT22;7534;50.762;7.000;2023-03-01T18:00:34;5.40;77.00
14884;DHT22;7534;50.762;7.000;2023-03-01T18:03:01;5.20;77.00
14884;DHT22;7534;50.762;7.000;2023-03-01T18:05:30;5.20;77.60
14884;DHT22;7534;50.762;7.000;2023-03-01T18:07:57;5.20;78.20
14884;DHT22;7534;50.762;7.000;2023-03-01T18:10:25;5.00;78.50
14884;DHT22;7534;50.762;7.000;2023-03-01T18:12:51;5.10;78.90
14884;DHT22;7534;50.762;7.000;2023-03-01T18:15:17;5.10;79.10
14884;DHT22;7534;50.762;7.000;2023-03-01T18:17:43;5.10;79.70
14884;DHT22;7534;50.762;7.000;2023-03-01T18:20:12;5.00;79.50
14884;DHT22;7534;50.762;7.000;2023-03-01T18:22:42;4.80;80.10
14884;DHT22;7534;50.762;7.000;2023-03-01T18:25:08;4.90;80.90
14884;DHT22;7534;50.762;7.000;2023-03-01T18:27:33;4.80;81.10
14884;DHT22;7534;50.762;7.000;2023-03-01T18:30:01;4.70;81.50
14884;DHT22;7534;50.762;7.000;2023-03-01T18:32:28;4.70;82.40
14884;DHT22;7534;50.762;7.000;2023-03-01T18:34:54;4.70;82.60
14884;DHT22;7534;50.762;7.000;2023-03-01T18:37:19;4.70;82.20
14884;DHT22;7534;50.762;7.000;2023-03-01T18:39:49;4.60;82.20
14884;DHT22;7534;50.762;7.000;2023-03-01T18:42:15;4.30;83.10
14884;DHT22;7534;50.762;7.000;2023-03-01T18:44:41;4.40;83.50
14884;DHT22;7534;50.762;7.000;2023-03-01T18:47:07;4.40;83.10
14884;DHT22;7534;50.762;7.000;2023-03-01T18:49:33;4.30;82.80
14884;DHT22;7534;50.762;7.000;2023-03-01T18:51:59;4.10;83.50
14884;DHT22;7534;50.762;7.000;2023-03-01T18:54:25;4.00;84.10
14884;DHT22;7534;50.762;7.000;2023-03-01T18:56:50;3.90;84.20
14884;DHT22;7534;50.762;7.000;2023-03-01T18:59:16;3.80;84.80
14884;DHT22;7534;50.762;7.000;2023-03-01T19:01:42;3.60;86.30
14884;DHT22;7534;50.762;7.000;2023-03-01T19:04:07;3.50;88.40
14884;DHT22;7534;50.762;7.000;2023-03-01T19:06:35;3.60;88.90
14884;DHT22;7534;50.762;7.000;2023-03-01T19:09:02;3.60;88.70
14884;DHT22;7534;50.762;7.000;2023-03-01T19:11:29;3.60;89.30
14884;DHT22;7534;50.762;7.000;2023-03-01T19:13:58;3.60;89.50
14884;DHT22;7534;50.762;7.000;2023-03-01T19:16:26;3.50;89.10
14884;DHT22;7534;50.762;7.000;2023-03-01T19:18:56;3.40;89.70
14884;DHT22;7534;50.762;7.000;2023-03-01T19:21:25;3.40;89.30
14884;DHT22;7534;50.762;7.000;2023-03-01T19:23:53;3.60;87.90
14884;DHT22;7534;50.762;7.000;2023-03-01T19:26:22;3.70;86.90
14884;DHT22;7534;50.762;7.000;2023-03-01T19:28:49;3.70;86.80
14884;DHT22;7534;50.762;7.000;2023-03-01T19:31:18;3.60;86.60
14884;DHT22;7534;50.762;7.000;2023-03-01T19:33:48;3.60;85.80
14884;DHT22;7534;50.762;7.000;2023-03-01T19:36:15;3.50;85.50
14884;DHT22;7534;50.762;7.000;2023-03-01T19:38:42;3.40;86.30
14884;DHT22;7534;50.762;7.000;2023-03-01T19:41:13;3.30;87.40
14884;DHT22;7534;50.762;7.000;2023-03-01T19:43:44;3.20;88.80
14884;DHT22;7534;50.762;7.000;2023-03-01T19:46:12;3.00;89.70
14884;DHT22;7534;50.762;7.000;2023-03-01T19:48:39;2.80;90.20